sensor_id;sensor_type;location;lat;lon;timestamp;P1;durP1;ratioP1;P2;durP2;ratioP2
15312;SDS011;7757;52.626;4.746;2023-04-24T00:00:31;6.25;;;1.80;;
15312;SDS011;7757;52.626;4.746;2023-04-24T00:03:17;7.40;;;1.80;;
15312;SDS011;7757;52.626;4.746;2023-04-24T00:06:06;6.10;;;1.80;;
15312;SDS011;7757;52.626;4.746;2023-04-24T00:08:52;7.60;;;1.92;;
15312;SDS011;7757;52.626;4.746;2023-04-24T00:11:38;8.23;;;1.83;;
15312;SDS011;7757;52.626;4.746;2023-04-24T00:14:23;6.47;;;1.70;;
15312;SDS011;7757;52.626;4.746;2023-04-24T00:17:08;13.73;;;1.80;;
15312;SDS011;7757;52.626;4.746;2023-04-24T00:19:54;7.20;;;1.85;;
15312;SDS011;7757;52.626;4.746;2023-04-24T00:22:43;7.13;;;1.80;;
15312;SDS011;7757;52.626;4.746;2023-04-24T00:25:28;8.68;;;1.75;;
15312;SDS011;7757;52.626;4.746;2023-04-24T00:28:14;4.25;;;1.60;;
15312;SDS011;7757;52.626;4.746;2023-04-24T00:30:59;6.30;;;1.67;;
15312;SDS011;7757;52.626;4.746;2023-04-24T00:33:44;5.57;;;1.77;;
15312;SDS011;7757;52.626;4.746;2023-04-24T00:36:30;4.65;;;1.60;;
15312;SDS011;7757;52.626;4.746;2023-04-24T00:39:20;5.50;;;1.70;;
15312;SDS011;7757;52.626;4.746;2023-04-24T00:42:06;5.30;;;1.60;;
15312;SDS011;7757;52.626;4.746;2023-04-24T00:44:51;8.15;;;1.70;;
15312;SDS011;7757;52.626;4.746;2023-04-24T00:47:37;5.65;;;1.70;;
15312;SDS011;7757;52.626;4.746;2023-04-24T00:50:23;6.60;;;1.80;;
15312;SDS011;7757;52.626;4.746;2023-04-24T00:53:09;6.75;;;1.70;;
15312;SDS011;7757;52.626;4.746;2023-04-24T00:55:56;5.13;;;1.50;;
15312;SDS011;7757;52.626;4.746;2023-04-24T00:58:43;5.75;;;1.60;;
15312;SDS011;7757;52.626;4.746;2023-04-24T01:01:29;7.32;;;1.60;;
15312;SDS011;7757;52.626;4.746;2023-04-24T01:04:16;4.75;;;1.63;;
15312;SDS011;7757;52.626;4.746;2023-04-24T01:07:02;5.18;;;1.60;;
15312;SDS011;7757;52.626;4.746;2023-04-24T01:09:53;5.22;;;1.45;;
15312;SDS011;7757;52.626;4.746;2023-04-24T01:12:40;4.70;;;1.60;;
15312;SDS011;7757;52.626;4.746;2023-04-24T01:15:25;5.75;;;1.63;;
15312;SDS011;7757;52.626;4.746;2023-04-24T01:18:11;6.38;;;1.45;;
15312;SDS011;7757;52.626;4.746;2023-04-24T01:20:57;6.80;;;1.50;;
15312;SDS011;7757;52.626;4.746;2023-04-24T01:23:45;7.13;;;1.60;;
15312;SDS011;7757;52.626;4.746;2023-04-24T01:26:30;5.53;;;1.65;;
15312;SDS011;7757;52.626;4.746;2023-04-24T01:29:16;5.50;;;1.55;;
15312;SDS011;7757;52.626;4.746;2023-04-24T01:32:02;8.00;;;1.60;;
15312;SDS011;7757;52.626;4.746;2023-04-24T01:34:48;6.18;;;1.50;;
15312;SDS011;7757;52.626;4.746;2023-04-24T01:37:34;4.40;;;1.48;;
15312;SDS011;7757;52.626;4.746;2023-04-24T01:40:22;5.20;;;1.58;;
15312;SDS011;7757;52.626;4.746;2023-04-24T01:43:08;4.20;;;1.33;;
15312;SDS011;7757;52.626;4.746;2023-04-24T01:45:53;3.65;;;1.35;;
15312;SDS011;7757;52.626;4.746;2023-04-24T01:48:42;4.05;;;1.27;;
15312;SDS011;7757;52.626;4.746;2023-04-24T01:51:27;4.57;;;1.40;;
15312;SDS011;7757;52.626;4.746;2023-04-24T01:54:12;3.70;;;1.38;;
15312;SDS011;7757;52.626;4.746;2023-04-24T01:56:59;5.72;;;1.40;;
15312;SDS011;7757;52.626;4.746;2023-04-24T01:59:45;6.90;;;1.55;;
15312;SDS011;7757;52.626;4.746;2023-04-24T02:02:31;5.60;;;1.60;;
15312;SDS011;7757;52.626;4.746;2023-04-24T02:05:17;4.55;;;1.50;;
15312;SDS011;7757;52.626;4.746;2023-04-24T02:08:02;6.75;;;1.60;;
15312;SDS011;7757;52.626;4.746;2023-04-24T02:10:48;5.18;;;1.55;;
15312;SDS011;7757;52.626;4.746;2023-04-24T02:13:34;4.28;;;1.20;;
15312;SDS011;7757;52.626;4.746;2023-04-24T02:16:20;5.38;;;1.60;;
15312;SDS011;7757;52.626;4.746;2023-04-24T02:19:05;4.53;;;1.70;;
15312;SDS011;7757;52.626;4.746;2023-04-24T02:21:51;5.43;;;1.60;;
15312;SDS011;7757;52.626;4.746;2023-04-24T02:24:36;3.55;;;1.33;;
15312;SDS011;7757;52.626;4.746;2023-04-24T02:27:21;5.78;;;1.48;;
15312;SDS011;7757;52.626;4.746;2023-04-24T02:30:08;4.63;;;1.30;;
15312;SDS011;7757;52.626;4.746;2023-04-24T02:32:55;4.65;;;1.40;;
15312;SDS011;7757;52.626;4.746;2023-04-24T02:35:40;6.68;;;1.50;;
15312;SDS011;7757;52.626;4.746;2023-04-24T02:38:26;6.53;;;1.52;;
15312;SDS011;7757;52.626;4.746;2023-04-24T02:41:11;3.85;;;1.35;;
15312;SDS011;7757;52.626;4.746;2023-04-24T02:43:56;4.53;;;1.35;;
15312;SDS011;7757;52.626;4.746;2023-04-24T02:46:43;4.80;;;1.40;;
15312;SDS011;7757;52.626;4.746;2023-04-24T02:49:29;6.20;;;1.50;;
15312;SDS011;7757;52.626;4.746;2023-04-24T02:52:14;5.72;;;1.40;;
15312;SDS011;7757;52.626;4.746;2023-04-24T02:55:00;6.13;;;1.38;;
15312;SDS011;7757;52.626;4.746;2023-04-24T02:57:46;3.88;;;1.30;;
15312;SDS011;7757;52.626;4.746;2023-04-24T03:00:31;4.88;;;1.42;;
15312;SDS011;7757;52.626;4.746;2023-04-24T03:03:18;5.72;;;1.50;;
15312;SDS011;7757;52.626;4.746;2023-04-24T03:06:03;4.45;;;1.55;;
15312;SDS011;7757;52.626;4.746;2023-04-24T03:08:50;5.15;;;1.50;;
15312;SDS011;7757;52.626;4.746;2023-04-24T03:11:35;7.00;;;1.52;;
15312;SDS011;7757;52.626;4.746;2023-04-24T03:14:20;5.82;;;1.38;;
15312;SDS011;7757;52.626;4.746;2023-04-24T03:17:06;6.03;;;1.70;;
15312;SDS011;7757;52.626;4.746;2023-04-24T03:19:53;6.28;;;1.45;;
15312;SDS011;7757;52.626;4.746;2023-04-24T03:22:38;5.20;;;1.33;;
15312;SDS011;7757;52.626;4.746;2023-04-24T03:25:23;7.13;;;1.63;;
15312;SDS011;7757;52.626;4.746;2023-04-24T03:28:09;7.30;;;1.60;;
15312;SDS011;7757;52.626;4.746;2023-04-24T03:30:54;5.45;;;1.50;;
15312;SDS011;7757;52.626;4.746;2023-04-24T03:33:39;7.75;;;1.50;;
15312;SDS011;7757;52.626;4.746;2023-04-24T03:36:26;5.32;;;1.55;;
15312;SDS011;7757;52.626;4.746;2023-04-24T03:39:12;5.25;;;1.52;;
15312;SDS011;7757;52.626;4.746;2023-04-24T03:41:57;5.72;;;1.30;;
15312;SDS011;7757;52.626;4.746;2023-04-24T03:44:42;5.60;;;1.50;;
15312;SDS011;7757;52.626;4.746;2023-04-24T03:47:28;6.25;;;1.40;;
15312;SDS011;7757;52.626;4.746;2023-04-24T03:50:14;6.90;;;1.63;;
15312;SDS011;7757;52.626;4.746;2023-04-24T03:53:00;4.95;;;1.50;;
15312;SDS011;7757;52.626;4.746;2023-04-24T03:55:46;5.57;;;1.50;;
15312;SDS011;7757;52.626;4.746;2023-04-24T03:58:31;5.38;;;1.60;;
15312;SDS011;7757;52.626;4.746;2023-04-24T04:01:17;5.38;;;1.65;;
15312;SDS011;7757;52.626;4.746;2023-04-24T04:04:04;4.78;;;1.40;;
15312;SDS011;7757;52.626;4.746;2023-04-24T04:06:49;5.57;;;1.63;;
15312;SDS011;7757;52.626;4.746;2023-04-24T04:09:37;4.95;;;1.45;;
15312;SDS011;7757;52.626;4.746;2023-04-24T04:12:22;4.05;;;1.30;;
15312;SDS011;7757;52.626;4.746;2023-04-24T04:15:08;6.07;;;1.50;;
15312;SDS011;7757;52.626;4.746;2023-04-24T04:17:53;4.80;;;1.40;;
15312;SDS011;7757;52.626;4.746;2023-04-24T04:20:39;4.85;;;1.42;;
15312;SDS011;7757;52.626;4.746;2023-04-24T04:23:24;3.85;;;1.38;;
15312;SDS011;7757;52.626;4.746;2023-04-24T04:26:12;7.43;;;1.70;;
15312;SDS011;7757;52.626;4.746;2023-04-24T04:28:57;6.05;;;1.60;;
15312;SDS011;7757;52.626;4.746;2023-04-24T04:31:42;5.65;;;1.50;;
15312;SDS011;7757;52.626;4.746;2023-04-24T04:34:31;6.03;;;1.85;;
15312;SDS011;7757;52.626;4.746;2023-04-24T04:37:16;6.95;;;1.48;;
15312;SDS011;7757;52.626;4.746;2023-04-24T04:40:02;6.10;;;1.50;;
15312;SDS011;7757;52.626;4.746;2023-04-24T04:42:52;5.25;;;1.50;;
15312;SDS011;7757;52.626;4.746;2023-04-24T04:45:37;5.40;;;1.42;;
15312;SDS011;7757;52.626;4.746;2023-04-24T04:48:23;8.18;;;1.70;;
15312;SDS011;7757;52.626;4.746;2023-04-24T04:51:09;7.78;;;1.90;;
15312;SDS011;7757;52.626;4.746;2023-04-24T04:53:54;9.43;;;2.17;;
15312;SDS011;7757;52.626;4.746;2023-04-24T04:56:40;8.32;;;2.10;;
15312;SDS011;7757;52.626;4.746;2023-04-24T04:59:27;10.02;;;2.92;;
15312;SDS011;7757;52.626;4.746;2023-04-24T05:02:12;8.85;;;2.30;;
15312;SDS011;7757;52.626;4.746;2023-04-24T05:04:58;9.27;;;2.63;;
15312;SDS011;7757;52.626;4.746;2023-04-24T05:07:43;14.80;;;3.90;;
15312;SDS011;7757;52.626;4.746;2023-04-24T05:10:29;11.10;;;2.63;;
15312;SDS011;7757;52.626;4.746;2023-04-24T05:13:14;9.35;;;2.58;;
15312;SDS011;7757;52.626;4.746;2023-04-24T05:16:01;11.07;;;2.92;;
15312;SDS011;7757;52.626;4.746;2023-04-24T05:18:47;12.63;;;3.28;;
15312;SDS011;7757;52.626;4.746;2023-04-24T05:21:32;9.80;;;2.60;;
15312;SDS011;7757;52.626;4.746;2023-04-24T05:24:17;10.57;;;2.67;;
15312;SDS011;7757;52.626;4.746;2023-04-24T05:27:03;17.45;;;4.75;;
15312;SDS011;7757;52.626;4.746;2023-04-24T05:29:49;13.70;;;3.85;;
15312;SDS011;7757;52.626;4.746;2023-04-24T05:32:36;10.25;;;3.15;;
15312;SDS011;7757;52.626;4.746;2023-04-24T05:35:21;10.82;;;2.65;;
15312;SDS011;7757;52.626;4.746;2023-04-24T05:38:07;9.63;;;2.78;;
15312;SDS011;7757;52.626;4.746;2023-04-24T05:40:52;16.45;;;3.22;;
15312;SDS011;7757;52.626;4.746;2023-04-24T05:43:37;16.52;;;3.40;;
15312;SDS011;7757;52.626;4.746;2023-04-24T05:46:23;14.55;;;3.40;;
15312;SDS011;7757;52.626;4.746;2023-04-24T05:49:10;14.70;;;3.42;;
15312;SDS011;7757;52.626;4.746;2023-04-24T05:51:55;12.60;;;3.40;;
15312;SDS011;7757;52.626;4.746;2023-04-24T05:54:40;17.00;;;3.65;;
15312;SDS011;7757;52.626;4.746;2023-04-24T05:57:26;16.73;;;4.05;;
15312;SDS011;7757;52.626;4.746;2023-04-24T06:00:12;15.52;;;4.00;;
15312;SDS011;7757;52.626;4.746;2023-04-24T06:02:57;14.27;;;3.20;;
15312;SDS011;7757;52.626;4.746;2023-04-24T06:05:44;16.20;;;3.58;;
15312;SDS011;7757;52.626;4.746;2023-04-24T06:08:30;26.88;;;3.58;;
15312;SDS011;7757;52.626;4.746;2023-04-24T06:11:15;23.05;;;4.03;;
15312;SDS011;7757;52.626;4.746;2023-04-24T06:14:00;15.52;;;3.45;;
15312;SDS011;7757;52.626;4.746;2023-04-24T06:16:46;14.30;;;3.33;;
15312;SDS011;7757;52.626;4.746;2023-04-24T06:19:31;20.42;;;3.58;;
15312;SDS011;7757;52.626;4.746;2023-04-24T06:22:18;14.68;;;3.38;;
15312;SDS011;7757;52.626;4.746;2023-04-24T06:25:03;13.20;;;3.10;;
15312;SDS011;7757;52.626;4.746;2023-04-24T06:27:50;13.88;;;3.00;;
15312;SDS011;7757;52.626;4.746;2023-04-24T06:30:35;14.30;;;2.90;;
15312;SDS011;7757;52.626;4.746;2023-04-24T06:33:24;12.05;;;2.92;;
15312;SDS011;7757;52.626;4.746;2023-04-24T06:36:09;14.00;;;3.05;;
15312;SDS011;7757;52.626;4.746;2023-04-24T06:38:56;10.65;;;2.90;;
15312;SDS011;7757;52.626;4.746;2023-04-24T06:41:41;13.43;;;3.10;;
15312;SDS011;7757;52.626;4.746;2023-04-24T06:44:27;12.57;;;3.20;;
15312;SDS011;7757;52.626;4.746;2023-04-24T06:47:12;10.75;;;2.85;;
15312;SDS011;7757;52.626;4.746;2023-04-24T06:49:57;13.65;;;3.05;;
15312;SDS011;7757;52.626;4.746;2023-04-24T06:52:43;13.50;;;3.00;;
15312;SDS011;7757;52.626;4.746;2023-04-24T06:55:30;13.30;;;3.05;;
15312;SDS011;7757;52.626;4.746;2023-04-24T06:58:15;13.68;;;2.97;;
15312;SDS011;7757;52.626;4.746;2023-04-24T07:01:00;14.98;;;2.80;;
15312;SDS011;7757;52.626;4.746;2023-04-24T07:03:46;11.77;;;2.70;;
15312;SDS011;7757;52.626;4.746;2023-04-24T07:06:31;14.18;;;3.50;;
15312;SDS011;7757;52.626;4.746;2023-04-24T07:09:17;20.17;;;2.78;;
15312;SDS011;7757;52.626;4.746;2023-04-24T07:12:04;12.07;;;2.83;;
15312;SDS011;7757;52.626;4.746;2023-04-24T07:14:51;12.68;;;2.70;;
15312;SDS011;7757;52.626;4.746;2023-04-24T07:17:36;15.75;;;2.90;;
15312;SDS011;7757;52.626;4.746;2023-04-24T07:20:27;14.10;;;3.05;;
15312;SDS011;7757;52.626;4.746;2023-04-24T07:23:12;11.65;;;2.90;;
15312;SDS011;7757;52.626;4.746;2023-04-24T07:25:58;11.32;;;2.65;;
15312;SDS011;7757;52.626;4.746;2023-04-24T07:28:45;14.15;;;2.72;;
15312;SDS011;7757;52.626;4.746;2023-04-24T07:31:30;12.27;;;2.70;;
15312;SDS011;7757;52.626;4.746;2023-04-24T07:34:16;12.75;;;2.58;;
15312;SDS011;7757;52.626;4.746;2023-04-24T07:37:01;15.57;;;2.88;;
15312;SDS011;7757;52.626;4.746;2023-04-24T07:39:47;13.00;;;2.95;;
15312;SDS011;7757;52.626;4.746;2023-04-24T07:42:32;13.50;;;2.80;;
15312;SDS011;7757;52.626;4.746;2023-04-24T07:45:21;10.43;;;3.25;;
15312;SDS011;7757;52.626;4.746;2023-04-24T07:48:09;11.15;;;2.40;;
15312;SDS011;7757;52.626;4.746;2023-04-24T07:50:55;10.23;;;2.33;;
15312;SDS011;7757;52.626;4.746;2023-04-24T07:53:40;13.57;;;2.40;;
15312;SDS011;7757;52.626;4.746;2023-04-24T07:56:25;10.20;;;2.40;;
15312;SDS011;7757;52.626;4.746;2023-04-24T07:59:11;13.20;;;2.72;;
15312;SDS011;7757;52.626;4.746;2023-04-24T08:01:58;13.23;;;2.67;;
15312;SDS011;7757;52.626;4.746;2023-04-24T08:04:44;9.40;;;2.05;;
15312;SDS011;7757;52.626;4.746;2023-04-24T08:07:30;11.18;;;2.42;;
15312;SDS011;7757;52.626;4.746;2023-04-24T08:10:15;11.80;;;2.45;;
15312;SDS011;7757;52.626;4.746;2023-04-24T08:13:01;9.82;;;2.10;;
15312;SDS011;7757;52.626;4.746;2023-04-24T08:15:46;11.63;;;2.28;;
15312;SDS011;7757;52.626;4.746;2023-04-24T08:18:33;10.18;;;2.30;;
15312;SDS011;7757;52.626;4.746;2023-04-24T08:21:19;12.18;;;2.38;;
15312;SDS011;7757;52.626;4.746;2023-04-24T08:24:04;14.93;;;2.55;;
15312;SDS011;7757;52.626;4.746;2023-04-24T08:26:51;10.10;;;2.10;;
15312;SDS011;7757;52.626;4.746;2023-04-24T08:29:37;13.98;;;2.13;;
15312;SDS011;7757;52.626;4.746;2023-04-24T08:32:23;9.85;;;2.25;;
15312;SDS011;7757;52.626;4.746;2023-04-24T08:35:09;13.65;;;2.40;;
15312;SDS011;7757;52.626;4.746;2023-04-24T08:37:55;10.88;;;2.00;;
15312;SDS011;7757;52.626;4.746;2023-04-24T08:40:40;11.85;;;2.78;;
15312;SDS011;7757;52.626;4.746;2023-04-24T08:43:26;7.80;;;1.95;;
15312;SDS011;7757;52.626;4.746;2023-04-24T08:46:12;9.73;;;2.28;;
15312;SDS011;7757;52.626;4.746;2023-04-24T08:48:58;8.95;;;2.00;;
15312;SDS011;7757;52.626;4.746;2023-04-24T08:51:46;10.43;;;2.22;;
15312;SDS011;7757;52.626;4.746;2023-04-24T08:54:33;13.75;;;1.88;;
15312;SDS011;7757;52.626;4.746;2023-04-24T08:57:19;13.20;;;2.22;;
15312;SDS011;7757;52.626;4.746;2023-04-24T09:00:07;8.93;;;1.85;;
15312;SDS011;7757;52.626;4.746;2023-04-24T09:02:53;10.27;;;1.98;;
15312;SDS011;7757;52.626;4.746;2023-04-24T09:05:39;9.98;;;2.00;;
15312;SDS011;7757;52.626;4.746;2023-04-24T09:08:30;10.05;;;2.22;;
15312;SDS011;7757;52.626;4.746;2023-04-24T09:11:17;9.32;;;1.92;;
15312;SDS011;7757;52.626;4.746;2023-04-24T09:14:02;11.60;;;2.05;;
15312;SDS011;7757;52.626;4.746;2023-04-24T09:16:49;9.48;;;1.92;;
15312;SDS011;7757;52.626;4.746;2023-04-24T09:19:34;10.57;;;1.80;;
15312;SDS011;7757;52.626;4.746;2023-04-24T09:22:20;8.23;;;1.65;;
15312;SDS011;7757;52.626;4.746;2023-04-24T09:25:08;13.35;;;1.80;;
15312;SDS011;7757;52.626;4.746;2023-04-24T09:27:59;11.32;;;2.08;;
15312;SDS011;7757;52.626;4.746;2023-04-24T09:30:45;9.77;;;1.80;;
15312;SDS011;7757;52.626;4.746;2023-04-24T09:33:31;8.65;;;1.83;;
15312;SDS011;7757;52.626;4.746;2023-04-24T09:36:17;12.20;;;2.05;;
15312;SDS011;7757;52.626;4.746;2023-04-24T09:39:03;11.02;;;1.90;;
15312;SDS011;7757;52.626;4.746;2023-04-24T09:41:53;12.93;;;1.70;;
15312;SDS011;7757;52.626;4.746;2023-04-24T09:44:40;12.38;;;2.03;;
15312;SDS011;7757;52.626;4.746;2023-04-24T09:47:26;10.48;;;1.80;;
15312;SDS011;7757;52.626;4.746;2023-04-24T09:50:12;7.32;;;1.65;;
15312;SDS011;7757;52.626;4.746;2023-04-24T09:53:01;9.88;;;1.80;;
15312;SDS011;7757;52.626;4.746;2023-04-24T09:55:47;9.55;;;1.73;;
15312;SDS011;7757;52.626;4.746;2023-04-24T10:01:29;16.85;;;1.70;;
15312;SDS011;7757;52.626;4.746;2023-04-24T10:04:16;9.33;;;1.90;;
15312;SDS011;7757;52.626;4.746;2023-04-24T10:07:03;9.90;;;1.95;;
15312;SDS011;7757;52.626;4.746;2023-04-24T10:09:50;10.60;;;1.70;;
15312;SDS011;7757;52.626;4.746;2023-04-24T10:12:35;10.10;;;1.50;;
15312;SDS011;7757;52.626;4.746;2023-04-24T10:15:22;7.97;;;1.50;;
15312;SDS011;7757;52.626;4.746;2023-04-24T10:18:08;7.35;;;1.50;;
15312;SDS011;7757;52.626;4.746;2023-04-24T10:20:54;8.10;;;1.60;;
15312;SDS011;7757;52.626;4.746;2023-04-24T10:23:40;6.95;;;1.88;;
15312;SDS011;7757;52.626;4.746;2023-04-24T10:26:27;6.90;;;1.40;;
15312;SDS011;7757;52.626;4.746;2023-04-24T10:29:13;7.75;;;1.60;;
15312;SDS011;7757;52.626;4.746;2023-04-24T10:32:01;7.13;;;1.30;;
15312;SDS011;7757;52.626;4.746;2023-04-24T10:34:46;5.88;;;1.23;;
15312;SDS011;7757;52.626;4.746;2023-04-24T10:37:34;5.43;;;1.20;;
15312;SDS011;7757;52.626;4.746;2023-04-24T10:40:25;5.63;;;1.20;;
15312;SDS011;7757;52.626;4.746;2023-04-24T10:43:11;7.20;;;1.50;;
15312;SDS011;7757;52.626;4.746;2023-04-24T10:46:02;10.90;;;1.83;;
15312;SDS011;7757;52.626;4.746;2023-04-24T10:48:54;14.95;;;1.88;;
15312;SDS011;7757;52.626;4.746;2023-04-24T10:51:47;10.93;;;1.80;;
15312;SDS011;7757;52.626;4.746;2023-04-24T10:54:34;7.18;;;1.17;;
15312;SDS011;7757;52.626;4.746;2023-04-24T10:57:27;7.35;;;1.50;;
15312;SDS011;7757;52.626;4.746;2023-04-24T11:00:21;9.15;;;1.50;;
15312;SDS011;7757;52.626;4.746;2023-04-24T11:03:24;10.75;;;1.40;;
15312;SDS011;7757;52.626;4.746;2023-04-24T11:06:12;10.70;;;1.52;;
15312;SDS011;7757;52.626;4.746;2023-04-24T11:09:01;10.43;;;1.48;;
15312;SDS011;7757;52.626;4.746;2023-04-24T11:11:49;15.68;;;1.52;;
15312;SDS011;7757;52.626;4.746;2023-04-24T11:17:44;9.10;;;1.50;;
15312;SDS011;7757;52.626;4.746;2023-04-24T11:20:30;8.70;;;1.40;;
15312;SDS011;7757;52.626;4.746;2023-04-24T11:23:17;4.75;;;1.17;;
15312;SDS011;7757;52.626;4.746;2023-04-24T11:29:08;9.88;;;1.40;;
15312;SDS011;7757;52.626;4.746;2023-04-24T11:31:53;7.22;;;1.30;;
15312;SDS011;7757;52.626;4.746;2023-04-24T11:34:39;6.13;;;1.10;;
15312;SDS011;7757;52.626;4.746;2023-04-24T11:37:26;7.57;;;1.27;;
15312;SDS011;7757;52.626;4.746;2023-04-24T11:40:15;8.02;;;1.40;;
15312;SDS011;7757;52.626;4.746;2023-04-24T11:43:04;7.22;;;1.10;;
15312;SDS011;7757;52.626;4.746;2023-04-24T11:45:50;7.20;;;1.17;;
15312;SDS011;7757;52.626;4.746;2023-04-24T11:48:35;5.20;;;0.90;;
15312;SDS011;7757;52.626;4.746;2023-04-24T11:51:23;6.45;;;1.30;;
15312;SDS011;7757;52.626;4.746;2023-04-24T11:54:10;8.50;;;1.45;;
15312;SDS011;7757;52.626;4.746;2023-04-24T11:56:57;7.22;;;1.33;;
15312;SDS011;7757;52.626;4.746;2023-04-24T11:59:42;4.10;;;1.00;;
15312;SDS011;7757;52.626;4.746;2023-04-24T12:02:27;7.45;;;1.48;;
15312;SDS011;7757;52.626;4.746;2023-04-24T12:05:18;6.10;;;1.25;;
15312;SDS011;7757;52.626;4.746;2023-04-24T12:08:04;11.77;;;1.40;;
15312;SDS011;7757;52.626;4.746;2023-04-24T12:10:50;12.10;;;1.45;;
15312;SDS011;7757;52.626;4.746;2023-04-24T12:13:37;9.27;;;1.42;;
15312;SDS011;7757;52.626;4.746;2023-04-24T12:16:23;7.05;;;1.20;;
15312;SDS011;7757;52.626;4.746;2023-04-24T12:19:10;7.30;;;1.67;;
15312;SDS011;7757;52.626;4.746;2023-04-24T12:22:00;7.70;;;1.55;;
15312;SDS011;7757;52.626;4.746;2023-04-24T12:24:55;9.50;;;1.50;;
15312;SDS011;7757;52.626;4.746;2023-04-24T12:27:45;7.53;;;1.30;;
15312;SDS011;7757;52.626;4.746;2023-04-24T12:30:39;11.68;;;1.70;;
15312;SDS011;7757;52.626;4.746;2023-04-24T12:33:27;9.75;;;1.65;;
15312;SDS011;7757;52.626;4.746;2023-04-24T12:36:17;9.43;;;1.50;;
15312;SDS011;7757;52.626;4.746;2023-04-24T12:39:03;9.07;;;1.55;;
15312;SDS011;7757;52.626;4.746;2023-04-24T12:41:59;14.98;;;1.88;;
15312;SDS011;7757;52.626;4.746;2023-04-24T12:44:45;17.65;;;2.30;;
15312;SDS011;7757;52.626;4.746;2023-04-24T12:47:33;14.55;;;2.00;;
15312;SDS011;7757;52.626;4.746;2023-04-24T12:50:20;18.27;;;2.15;;
15312;SDS011;7757;52.626;4.746;2023-04-24T12:53:05;18.65;;;2.80;;
15312;SDS011;7757;52.626;4.746;2023-04-24T12:55:51;13.60;;;2.15;;
15312;SDS011;7757;52.626;4.746;2023-04-24T12:58:37;17.63;;;2.15;;
15312;SDS011;7757;52.626;4.746;2023-04-24T13:01:22;22.10;;;2.75;;
15312;SDS011;7757;52.626;4.746;2023-04-24T13:04:09;14.88;;;2.30;;
15312;SDS011;7757;52.626;4.746;2023-04-24T13:06:54;15.13;;;2.35;;
15312;SDS011;7757;52.626;4.746;2023-04-24T13:09:40;13.48;;;2.30;;
15312;SDS011;7757;52.626;4.746;2023-04-24T13:12:25;15.23;;;2.20;;
15312;SDS011;7757;52.626;4.746;2023-04-24T13:15:11;11.32;;;1.75;;
15312;SDS011;7757;52.626;4.746;2023-04-24T13:17:56;11.55;;;1.80;;
15312;SDS011;7757;52.626;4.746;2023-04-24T13:20:43;12.80;;;1.92;;
15312;SDS011;7757;52.626;4.746;2023-04-24T13:23:30;14.07;;;2.17;;
15312;SDS011;7757;52.626;4.746;2023-04-24T13:26:16;10.82;;;2.00;;
15312;SDS011;7757;52.626;4.746;2023-04-24T13:29:01;12.75;;;2.22;;
15312;SDS011;7757;52.626;4.746;2023-04-24T13:31:49;15.48;;;1.80;;
15312;SDS011;7757;52.626;4.746;2023-04-24T13:34:36;11.73;;;1.88;;
15312;SDS011;7757;52.626;4.746;2023-04-24T13:37:23;15.30;;;2.28;;
15312;SDS011;7757;52.626;4.746;2023-04-24T13:40:08;10.18;;;2.00;;
15312;SDS011;7757;52.626;4.746;2023-04-24T13:42:54;11.45;;;2.20;;
15312;SDS011;7757;52.626;4.746;2023-04-24T13:45:39;11.15;;;1.98;;
15312;SDS011;7757;52.626;4.746;2023-04-24T13:48:25;11.30;;;2.17;;
15312;SDS011;7757;52.626;4.746;2023-04-24T13:51:10;11.55;;;2.08;;
15312;SDS011;7757;52.626;4.746;2023-04-24T13:53:57;12.25;;;2.10;;
15312;SDS011;7757;52.626;4.746;2023-04-24T13:56:43;10.98;;;2.00;;
15312;SDS011;7757;52.626;4.746;2023-04-24T13:59:29;12.88;;;2.05;;
15312;SDS011;7757;52.626;4.746;2023-04-24T14:02:14;10.02;;;2.20;;
15312;SDS011;7757;52.626;4.746;2023-04-24T14:05:00;12.88;;;2.60;;
15312;SDS011;7757;52.626;4.746;2023-04-24T14:07:46;9.55;;;2.00;;
15312;SDS011;7757;52.626;4.746;2023-04-24T14:10:33;12.57;;;2.25;;
15312;SDS011;7757;52.626;4.746;2023-04-24T14:13:18;11.65;;;2.42;;
15312;SDS011;7757;52.626;4.746;2023-04-24T14:16:05;10.82;;;2.10;;
15312;SDS011;7757;52.626;4.746;2023-04-24T14:18:50;12.52;;;2.13;;
15312;SDS011;7757;52.626;4.746;2023-04-24T14:21:36;9.75;;;2.25;;
15312;SDS011;7757;52.626;4.746;2023-04-24T14:24:21;14.52;;;2.40;;
15312;SDS011;7757;52.626;4.746;2023-04-24T14:27:08;13.25;;;2.03;;
15312;SDS011;7757;52.626;4.746;2023-04-24T14:29:53;10.93;;;2.05;;
15312;SDS011;7757;52.626;4.746;2023-04-24T14:32:39;10.30;;;2.17;;
15312;SDS011;7757;52.626;4.746;2023-04-24T14:35:24;13.07;;;2.10;;
15312;SDS011;7757;52.626;4.746;2023-04-24T14:38:10;10.55;;;2.50;;
15312;SDS011;7757;52.626;4.746;2023-04-24T14:40:55;13.13;;;2.47;;
15312;SDS011;7757;52.626;4.746;2023-04-24T14:43:42;12.02;;;2.17;;
15312;SDS011;7757;52.626;4.746;2023-04-24T14:46:28;10.63;;;1.95;;
15312;SDS011;7757;52.626;4.746;2023-04-24T14:49:13;10.13;;;1.92;;
15312;SDS011;7757;52.626;4.746;2023-04-24T14:51:59;13.43;;;2.38;;
15312;SDS011;7757;52.626;4.746;2023-04-24T14:54:46;12.73;;;2.58;;
15312;SDS011;7757;52.626;4.746;2023-04-24T14:57:31;12.25;;;2.13;;
15312;SDS011;7757;52.626;4.746;2023-04-24T15:00:19;14.55;;;2.20;;
15312;SDS011;7757;52.626;4.746;2023-04-24T15:03:06;12.45;;;2.10;;
15312;SDS011;7757;52.626;4.746;2023-04-24T15:05:52;13.57;;;2.60;;
15312;SDS011;7757;52.626;4.746;2023-04-24T15:08:37;14.20;;;2.25;;
15312;SDS011;7757;52.626;4.746;2023-04-24T15:11:22;12.38;;;2.13;;
15312;SDS011;7757;52.626;4.746;2023-04-24T15:14:08;14.85;;;2.45;;
15312;SDS011;7757;52.626;4.746;2023-04-24T15:16:55;13.55;;;2.30;;
15312;SDS011;7757;52.626;4.746;2023-04-24T15:19:40;14.43;;;2.40;;
15312;SDS011;7757;52.626;4.746;2023-04-24T15:22:26;12.00;;;2.30;;
15312;SDS011;7757;52.626;4.746;2023-04-24T15:25:12;11.75;;;2.30;;
15312;SDS011;7757;52.626;4.746;2023-04-24T15:27:57;12.30;;;2.22;;
15312;SDS011;7757;52.626;4.746;2023-04-24T15:30:43;11.30;;;2.33;;
15312;SDS011;7757;52.626;4.746;2023-04-24T15:33:30;11.90;;;2.65;;
15312;SDS011;7757;52.626;4.746;2023-04-24T15:36:15;10.60;;;1.80;;
15312;SDS011;7757;52.626;4.746;2023-04-24T15:39:01;12.75;;;2.70;;
15312;SDS011;7757;52.626;4.746;2023-04-24T15:41:47;14.60;;;2.25;;
15312;SDS011;7757;52.626;4.746;2023-04-24T15:44:34;9.80;;;2.05;;
15312;SDS011;7757;52.626;4.746;2023-04-24T15:47:19;13.85;;;2.30;;
15312;SDS011;7757;52.626;4.746;2023-04-24T15:50:06;10.68;;;1.95;;
15312;SDS011;7757;52.626;4.746;2023-04-24T15:52:53;10.63;;;2.15;;
15312;SDS011;7757;52.626;4.746;2023-04-24T15:55:38;12.43;;;2.38;;
15312;SDS011;7757;52.626;4.746;2023-04-24T15:58:24;14.35;;;2.35;;
15312;SDS011;7757;52.626;4.746;2023-04-24T16:01:10;11.45;;;2.30;;
15312;SDS011;7757;52.626;4.746;2023-04-24T16:03:55;11.85;;;2.10;;
15312;SDS011;7757;52.626;4.746;2023-04-24T16:06:42;11.75;;;2.80;;
15312;SDS011;7757;52.626;4.746;2023-04-24T16:09:27;11.15;;;2.17;;
15312;SDS011;7757;52.626;4.746;2023-04-24T16:12:13;13.35;;;2.40;;
15312;SDS011;7757;52.626;4.746;2023-04-24T16:14:58;11.48;;;1.85;;
15312;SDS011;7757;52.626;4.746;2023-04-24T16:17:44;11.15;;;2.28;;
15312;SDS011;7757;52.626;4.746;2023-04-24T16:20:29;16.15;;;2.15;;
15312;SDS011;7757;52.626;4.746;2023-04-24T16:23:16;12.68;;;2.38;;
15312;SDS011;7757;52.626;4.746;2023-04-24T16:26:01;12.85;;;2.70;;
15312;SDS011;7757;52.626;4.746;2023-04-24T16:28:47;15.85;;;2.35;;
15312;SDS011;7757;52.626;4.746;2023-04-24T16:31:32;17.88;;;2.25;;
15312;SDS011;7757;52.626;4.746;2023-04-24T16:34:17;10.63;;;2.17;;
15312;SDS011;7757;52.626;4.746;2023-04-24T16:37:03;15.55;;;2.33;;
15312;SDS011;7757;52.626;4.746;2023-04-24T16:39:50;12.93;;;2.53;;
15312;SDS011;7757;52.626;4.746;2023-04-24T16:42:38;10.10;;;2.30;;
15312;SDS011;7757;52.626;4.746;2023-04-24T16:45:24;15.27;;;2.40;;
15312;SDS011;7757;52.626;4.746;2023-04-24T16:48:09;12.68;;;2.20;;
15312;SDS011;7757;52.626;4.746;2023-04-24T16:50:55;10.88;;;1.95;;
15312;SDS011;7757;52.626;4.746;2023-04-24T16:53:40;9.20;;;1.80;;
15312;SDS011;7757;52.626;4.746;2023-04-24T16:56:27;11.68;;;2.00;;
15312;SDS011;7757;52.626;4.746;2023-04-24T16:59:13;8.60;;;1.80;;